createdAt,value
2018-04-16T00:00:47.561Z,91.10
2018-04-16T00:03:15.186Z,91.20
2018-04-16T00:05:42.903Z,91.20
2018-04-16T00:08:10.414Z,91.20
2018-04-16T00:10:39.770Z,91.70
2018-04-16T00:13:07.276Z,91.40
2018-04-16T00:15:34.810Z,91.50
2018-04-16T00:18:02.342Z,91.20
2018-04-16T00:20:29.864Z,91.20
2018-04-16T00:22:57.666Z,91.30
2018-04-16T00:25:25.382Z,91.20
2018-04-16T00:27:52.905Z,91.20
2018-04-16T00:30:20.416Z,91.20
2018-04-16T00:32:53.627Z,91.40
2018-04-16T00:35:27.763Z,91.30
2018-04-16T00:38:01.167Z,91.30
2018-04-16T00:40:34.424Z,91.40
2018-04-16T00:43:08.292Z,91.30
2018-04-16T00:45:41.492Z,91.30
2018-04-16T00:48:14.744Z,91.30
2018-04-16T00:50:48.046Z,91.20
2018-04-16T00:53:21.420Z,91.60
2018-04-16T00:55:55.004Z,91.10
2018-04-16T00:58:28.331Z,91.00
2018-04-16T01:01:01.481Z,90.90
2018-04-16T01:03:34.614Z,91.10
2018-04-16T01:06:07.804Z,90.90
2018-04-16T01:08:40.967Z,90.90
2018-04-16T01:11:14.180Z,90.80
2018-04-16T01:13:47.428Z,91.00
2018-04-16T01:16:20.577Z,90.90
2018-04-16T01:18:53.655Z,90.70
2018-04-16T01:21:26.778Z,90.60
2018-04-16T01:24:00.112Z,90.60
2018-04-16T01:26:33.567Z,90.60
2018-04-16T01:29:06.627Z,90.60
2018-04-16T01:31:39.763Z,90.50
2018-04-16T01:34:12.912Z,90.70
2018-04-16T01:36:46.068Z,90.60
2018-04-16T01:39:20.107Z,90.80
2018-04-16T01:41:54.050Z,91.00
2018-04-16T01:44:27.332Z,91.00
2018-04-16T01:47:03.864Z,90.90
2018-04-16T01:49:37.712Z,91.10
2018-04-16T01:52:11.034Z,90.70
2018-04-16T01:54:44.103Z,90.60
2018-04-16T01:57:17.244Z,90.80
2018-04-16T01:59:50.424Z,90.70
2018-04-16T02:02:23.685Z,90.80
2018-04-16T02:04:57.694Z,91.00
2018-04-16T02:07:30.970Z,90.90
2018-04-16T02:10:04.235Z,91.00
2018-04-16T02:12:37.515Z,91.10
2018-04-16T02:15:11.042Z,90.90
2018-04-16T02:17:44.303Z,90.80
2018-04-16T02:20:18.321Z,90.70
2018-04-16T02:22:51.476Z,91.00
2018-04-16T02:25:24.663Z,90.50
2018-04-16T02:27:57.758Z,90.50
2018-04-16T02:30:30.855Z,90.70
2018-04-16T02:33:04.009Z,90.70
2018-04-16T02:35:37.213Z,90.70
2018-04-16T02:38:10.469Z,90.60
2018-04-16T02:40:43.629Z,90.80
2018-04-16T02:43:16.933Z,90.80
2018-04-16T02:45:50.041Z,90.90
2018-04-16T02:48:23.385Z,90.90
2018-04-16T02:50:56.447Z,90.80
2018-04-16T02:53:30.302Z,90.50
2018-04-16T02:56:03.795Z,90.50
2018-04-16T02:58:36.924Z,90.20
2018-04-16T03:01:10.159Z,90.30
2018-04-16T03:03:43.416Z,90.40
2018-04-16T03:06:17.282Z,90.20
2018-04-16T03:08:50.436Z,90.20
2018-04-16T03:11:24.289Z,89.80
2018-04-16T03:13:57.393Z,89.80
2018-04-16T03:16:30.686Z,89.50
2018-04-16T03:19:04.583Z,89.90
2018-04-16T03:21:38.491Z,90.00
2018-04-16T03:24:11.770Z,90.30
2018-04-16T03:26:44.920Z,90.00
2018-04-16T03:29:18.998Z,89.80
2018-04-16T03:31:52.131Z,89.80
2018-04-16T03:34:26.085Z,90.10
2018-04-16T03:36:59.262Z,90.10
2018-04-16T03:39:33.203Z,89.90
2018-04-16T03:42:06.562Z,89.90
2018-04-16T03:44:40.444Z,89.80
2018-04-16T03:47:14.538Z,89.60
2018-04-16T03:49:47.817Z,89.50
2018-04-16T03:52:20.935Z,89.70
2018-04-16T03:54:49.820Z,89.20
2018-04-16T03:57:17.394Z,89.30
2018-04-16T03:59:45.896Z,89.70
2018-04-16T04:02:13.426Z,89.70
2018-04-16T04:04:41.834Z,89.90
2018-04-16T04:07:09.329Z,90.00
2018-04-16T04:09:36.866Z,90.10
2018-04-16T04:12:04.578Z,90.20
2018-04-16T04:14:32.114Z,90.10
2018-04-16T04:16:59.618Z,90.10
2018-04-16T04:19:28.127Z,90.00
2018-04-16T04:21:55.666Z,90.00
2018-04-16T04:24:49.965Z,89.80
2018-04-16T04:27:29.521Z,90.00
2018-04-16T04:32:56.064Z,89.80
2018-04-16T04:35:23.700Z,89.00
2018-04-16T04:37:51.199Z,89.50
2018-04-16T04:40:18.789Z,90.10
2018-04-16T04:42:46.337Z,89.40
2018-04-16T04:45:13.928Z,89.60
2018-04-16T04:47:42.279Z,89.20
2018-04-16T04:50:10.016Z,89.20
2018-04-16T04:52:39.285Z,89.40
2018-04-16T04:55:06.852Z,89.40
2018-04-16T04:57:34.549Z,89.70
2018-04-16T05:00:02.077Z,89.60
2018-04-16T05:02:29.594Z,89.60
2018-04-16T05:04:58.149Z,89.50
2018-04-16T05:07:25.678Z,89.10
2018-04-16T05:09:53.219Z,88.70
2018-04-16T05:12:21.633Z,88.50
2018-04-16T05:14:49.163Z,88.30
2018-04-16T05:17:17.610Z,88.20
2018-04-16T05:19:45.200Z,88.10
2018-04-16T05:22:13.838Z,87.90
2018-04-16T05:24:41.377Z,87.40
2018-04-16T05:27:09.173Z,87.40
2018-04-16T05:29:37.082Z,87.60
2018-04-16T05:32:04.646Z,87.30
2018-04-16T05:34:32.939Z,86.70
2018-04-16T05:37:00.599Z,86.70
2018-04-16T05:39:28.357Z,86.40
2018-04-16T05:41:55.897Z,86.40
2018-04-16T05:44:24.204Z,87.30
2018-04-16T05:46:52.184Z,86.60
2018-04-16T05:49:20.115Z,87.00
2018-04-16T05:51:48.640Z,87.10
2018-04-16T05:54:16.148Z,87.20
2018-04-16T05:56:43.685Z,87.00
2018-04-16T05:59:11.327Z,86.70
2018-04-16T06:01:38.872Z,86.60
2018-04-16T06:04:06.598Z,86.30
2018-04-16T06:06:34.283Z,86.80
2018-04-16T06:09:01.823Z,86.60
2018-04-16T06:11:30.274Z,86.60
2018-04-16T06:13:57.790Z,86.60
2018-04-16T06:16:25.701Z,87.80
2018-04-16T06:18:53.233Z,89.10
2018-04-16T06:21:20.783Z,90.20
2018-04-16T06:23:48.471Z,90.30
2018-04-16T06:26:17.004Z,91.20
2018-04-16T06:28:45.589Z,91.00
2018-04-16T06:31:13.297Z,90.60
2018-04-16T06:33:40.811Z,91.40
2018-04-16T06:36:08.379Z,91.10
2018-04-16T06:38:37.573Z,90.90
2018-04-16T06:41:05.138Z,90.90
2018-04-16T06:43:32.786Z,91.30
2018-04-16T06:46:02.029Z,90.80
2018-04-16T06:48:30.389Z,90.80
2018-04-16T06:50:57.917Z,90.20
2018-04-16T06:53:26.132Z,88.70
2018-04-16T06:55:53.795Z,89.20
2018-04-16T06:58:21.425Z,89.30
2018-04-16T07:00:49.846Z,88.00
2018-04-16T07:03:17.530Z,88.00
2018-04-16T07:05:45.163Z,88.70
2018-04-16T07:08:12.750Z,87.10
2018-04-16T07:10:40.275Z,88.90
2018-04-16T07:13:08.051Z,88.30
2018-04-16T07:15:35.581Z,89.70
2018-04-16T07:18:04.740Z,90.00
2018-04-16T07:20:32.653Z,90.00
2018-04-16T07:23:00.181Z,90.50
2018-04-16T07:25:27.923Z,90.50
2018-04-16T07:27:55.751Z,90.60
2018-04-16T07:30:23.305Z,90.50
2018-04-16T07:32:51.396Z,91.00
2018-04-16T07:35:18.937Z,90.30
2018-04-16T07:37:46.452Z,90.90
2018-04-16T07:40:13.980Z,90.70
2018-04-16T07:42:42.287Z,91.20
2018-04-16T07:45:11.193Z,91.70
2018-04-16T07:47:38.834Z,91.40
2018-04-16T07:50:06.417Z,91.20
2018-04-16T07:52:34.162Z,90.70
2018-04-16T07:55:01.841Z,91.10
2018-04-16T07:57:29.528Z,90.30
2018-04-16T07:59:57.045Z,90.70
2018-04-16T08:02:24.590Z,90.70
2018-04-16T08:04:52.174Z,91.30
2018-04-16T08:07:19.756Z,90.80
2018-04-16T08:09:47.284Z,90.80
2018-04-16T08:12:15.117Z,90.30
2018-04-16T08:14:42.652Z,89.60
2018-04-16T08:17:10.161Z,88.80
2018-04-16T08:19:38.096Z,89.40
2018-04-16T08:22:06.564Z,88.50
2018-04-16T08:24:34.353Z,87.30
2018-04-16T08:27:02.796Z,88.80
2018-04-16T08:29:31.091Z,88.30
2018-04-16T08:31:59.369Z,89.50
2018-04-16T08:34:26.894Z,89.60
2018-04-16T08:36:54.407Z,88.40
2018-04-16T08:39:22.021Z,87.10
2018-04-16T08:41:49.545Z,86.90
2018-04-16T08:44:17.441Z,86.90
2018-04-16T08:46:44.928Z,87.40
2018-04-16T08:49:12.481Z,86.90
2018-04-16T08:51:40.116Z,85.80
2018-04-16T08:54:08.931Z,85.10
2018-04-16T08:56:37.223Z,83.00
2018-04-16T08:59:05.044Z,83.00
2018-04-16T09:01:32.674Z,81.90
2018-04-16T09:04:00.465Z,80.80
2018-04-16T09:06:28.115Z,80.30
2018-04-16T09:08:55.689Z,80.70
2018-04-16T09:11:23.312Z,80.10
2018-04-16T09:13:50.878Z,81.40
2018-04-16T09:16:18.385Z,80.90
2018-04-16T09:18:45.960Z,80.00
2018-04-16T09:21:13.516Z,80.80
2018-04-16T09:23:41.794Z,78.70
2018-04-16T09:26:10.080Z,79.40
2018-04-16T09:28:38.392Z,78.20
2018-04-16T09:31:06.521Z,77.80
2018-04-16T09:33:34.047Z,77.80
2018-04-16T09:36:01.547Z,77.90
2018-04-16T09:38:29.835Z,76.90
2018-04-16T09:40:57.461Z,76.90
2018-04-16T09:43:24.969Z,76.20
2018-04-16T09:45:52.535Z,75.80
2018-04-16T09:48:20.197Z,75.40
2018-04-16T09:50:48.564Z,76.20
2018-04-16T09:53:17.707Z,75.60
2018-04-16T09:55:45.256Z,75.90
2018-04-16T09:58:12.773Z,75.70
2018-04-16T10:00:54.967Z,75.90
2018-04-16T10:03:23.101Z,76.10
2018-04-16T10:05:50.641Z,76.30
2018-04-16T10:08:18.145Z,75.50
2018-04-16T10:10:45.712Z,74.70
2018-04-16T10:13:13.303Z,75.00
2018-04-16T10:15:40.968Z,74.10
2018-04-16T10:18:09.316Z,75.20
2018-04-16T10:20:36.966Z,74.70
2018-04-16T10:23:04.480Z,75.60
2018-04-16T10:25:32.172Z,75.20
2018-04-16T10:27:59.715Z,76.10
2018-04-16T10:30:27.229Z,76.00
2018-04-16T10:32:54.765Z,75.60
2018-04-16T10:35:22.543Z,75.60
2018-04-16T10:37:50.801Z,74.30
2018-04-16T10:40:18.380Z,74.10
2018-04-16T10:42:46.676Z,73.10
2018-04-16T10:45:14.955Z,72.20
2018-04-16T10:47:42.597Z,72.30
2018-04-16T10:50:10.160Z,71.80
2018-04-16T10:52:37.794Z,70.70
2018-04-16T10:55:05.337Z,69.40
2018-04-16T10:57:32.909Z,67.90
2018-04-16T11:00:00.439Z,68.00
2018-04-16T11:02:27.938Z,66.20
2018-04-16T11:04:55.728Z,66.50
2018-04-16T11:07:23.249Z,66.00
2018-04-16T11:09:50.801Z,64.80
2018-04-16T11:12:18.339Z,63.40
2018-04-16T11:14:45.888Z,63.10
2018-04-16T11:17:13.510Z,63.50
2018-04-16T11:19:41.049Z,63.20
2018-04-16T11:22:08.573Z,63.90
2018-04-16T11:24:36.076Z,63.10
2018-04-16T11:27:03.583Z,63.20
2018-04-16T11:29:31.097Z,62.80
2018-04-16T11:31:58.596Z,63.00
2018-04-16T11:34:26.138Z,62.50
2018-04-16T11:36:53.882Z,62.90
2018-04-16T11:39:21.412Z,62.60
2018-04-16T11:41:49.011Z,62.20
2018-04-16T11:44:17.292Z,61.50
2018-04-16T11:46:44.802Z,61.50
2018-04-16T11:49:12.401Z,59.70
2018-04-16T11:51:40.037Z,59.90
2018-04-16T11:54:07.747Z,60.80
2018-04-16T11:56:35.446Z,60.50
2018-04-16T11:59:03.360Z,61.10
2018-04-16T12:01:30.947Z,60.20
2018-04-16T12:03:59.301Z,61.80
2018-04-16T12:06:27.326Z,61.90
2018-04-16T12:08:54.836Z,63.10
2018-04-16T12:11:22.373Z,62.60
2018-04-16T12:13:50.306Z,61.80
2018-04-16T12:16:17.892Z,62.50
2018-04-16T12:18:45.448Z,62.50
2018-04-16T12:21:12.997Z,62.60
2018-04-16T12:23:47.576Z,63.40
2018-04-16T12:26:15.975Z,63.30
2018-04-16T12:28:43.473Z,63.30
2018-04-16T12:31:10.999Z,62.40
2018-04-16T12:33:38.532Z,61.70
2018-04-16T12:36:12.067Z,61.40
2018-04-16T12:38:45.462Z,60.70
2018-04-16T12:41:18.640Z,60.60
2018-04-16T12:43:46.272Z,59.90
2018-04-16T12:46:13.859Z,60.70
2018-04-16T12:48:41.583Z,61.40
2018-04-16T12:51:09.131Z,60.20
2018-04-16T12:53:49.424Z,60.10
2018-04-16T12:56:22.812Z,60.50
2018-04-16T12:58:56.104Z,60.00
2018-04-16T13:01:23.723Z,60.40
2018-04-16T13:03:51.237Z,60.80
2018-04-16T13:06:19.596Z,60.60
2018-04-16T13:08:47.890Z,60.80
2018-04-16T13:11:16.189Z,60.60
2018-04-16T13:13:43.721Z,60.00
2018-04-16T13:16:11.418Z,60.10
2018-04-16T13:18:45.015Z,60.30
2018-04-16T13:21:12.553Z,60.10
2018-04-16T13:23:46.918Z,61.10
2018-04-16T13:26:14.433Z,61.10
2018-04-16T13:28:48.527Z,61.90
2018-04-16T13:31:16.052Z,61.90
2018-04-16T13:33:49.406Z,62.40
2018-04-16T13:36:16.906Z,61.60
2018-04-16T13:38:45.409Z,61.70
2018-04-16T13:41:18.677Z,61.70
2018-04-16T13:43:46.242Z,60.90
2018-04-16T13:46:19.337Z,61.90
2018-04-16T13:48:53.339Z,61.50
2018-04-16T13:51:21.623Z,62.30
2018-04-16T13:54:01.033Z,63.50
2018-04-16T13:56:28.579Z,64.00
2018-04-16T13:59:07.627Z,64.80
2018-04-16T14:01:35.122Z,65.90
2018-04-16T14:04:03.358Z,67.20
2018-04-16T14:06:31.024Z,67.90
2018-04-16T14:09:04.594Z,68.70
2018-04-16T14:11:32.137Z,70.00
2018-04-16T14:14:05.580Z,70.30
2018-04-16T14:16:33.179Z,71.30
2018-04-16T14:19:00.690Z,71.90
2018-04-16T14:21:29.261Z,72.40
2018-04-16T14:24:02.703Z,73.40
2018-04-16T14:26:30.480Z,74.80
2018-04-16T14:28:57.993Z,75.10
2018-04-16T14:31:26.295Z,78.40
2018-04-16T14:33:54.001Z,78.40
2018-04-16T14:36:21.743Z,80.00
2018-04-16T14:38:49.274Z,79.00
2018-04-16T14:41:24.512Z,79.80
2018-04-16T14:43:52.286Z,80.70
2018-04-16T14:46:19.783Z,82.20
2018-04-16T14:48:47.303Z,82.80
2018-04-16T14:51:15.400Z,82.90
2018-04-16T14:53:42.920Z,84.10
2018-04-16T14:56:10.561Z,85.30
2018-04-16T14:58:38.118Z,87.30
2018-04-16T15:01:11.502Z,86.90
2018-04-16T15:03:45.400Z,86.50
2018-04-16T15:06:12.921Z,87.00
2018-04-16T15:08:46.398Z,87.90
2018-04-16T15:11:20.900Z,89.20
2018-04-16T15:13:48.423Z,89.30
2018-04-16T15:16:15.961Z,90.00
2018-04-16T15:18:43.615Z,89.40
2018-04-16T15:21:11.167Z,89.30
2018-04-16T15:23:38.742Z,90.30
2018-04-16T15:26:06.369Z,90.50
2018-04-16T15:28:34.687Z,91.00
2018-04-16T15:31:02.277Z,91.00
2018-04-16T15:33:29.817Z,91.30
2018-04-16T15:35:57.378Z,90.80
2018-04-16T15:38:24.874Z,91.10
2018-04-16T15:40:52.529Z,91.30
2018-04-16T15:43:20.038Z,91.40
2018-04-16T15:45:47.807Z,91.70
2018-04-16T15:48:16.199Z,91.80
2018-04-16T15:50:43.719Z,91.60
2018-04-16T15:53:11.598Z,91.60
2018-04-16T15:55:39.217Z,91.60
2018-04-16T15:58:08.374Z,92.10
2018-04-16T16:00:36.777Z,92.20
2018-04-16T16:03:04.277Z,92.20
2018-04-16T16:05:31.763Z,92.30
2018-04-16T16:07:59.262Z,92.30
2018-04-16T16:10:26.776Z,92.90
2018-04-16T16:12:54.279Z,93.00
2018-04-16T16:15:21.823Z,92.70
2018-04-16T16:17:49.374Z,92.80
2018-04-16T16:20:16.938Z,93.00
2018-04-16T16:22:44.666Z,92.70
2018-04-16T16:25:12.944Z,92.70
2018-04-16T16:27:40.637Z,92.70
2018-04-16T16:30:08.205Z,93.00
2018-04-16T16:32:35.715Z,93.00
2018-04-16T16:35:04.123Z,93.10
2018-04-16T16:37:31.925Z,93.00
2018-04-16T16:39:59.438Z,93.10
2018-04-16T16:42:26.957Z,93.10
2018-04-16T16:44:54.473Z,92.90
2018-04-16T16:47:21.991Z,93.60
2018-04-16T16:49:49.503Z,93.50
2018-04-16T16:52:17.163Z,93.60
2018-04-16T16:54:44.682Z,93.60
2018-04-16T16:57:12.199Z,93.80
2018-04-16T16:59:39.726Z,93.70
2018-04-16T17:02:07.233Z,93.30
2018-04-16T17:04:34.771Z,93.90
2018-04-16T17:07:02.342Z,93.80
2018-04-16T17:09:29.978Z,93.90
2018-04-16T17:11:58.267Z,93.20
2018-04-16T17:14:25.813Z,93.20
2018-04-16T17:16:53.343Z,93.20
2018-04-16T17:19:20.890Z,93.10
2018-04-16T17:21:49.226Z,93.40
2018-04-16T17:24:16.735Z,93.40
2018-04-16T17:26:45.015Z,93.90
2018-04-16T17:29:12.666Z,93.80
2018-04-16T17:31:40.981Z,94.10
2018-04-16T17:34:09.232Z,94.70
2018-04-16T17:36:36.961Z,94.70
2018-04-16T17:39:07.292Z,94.60
2018-04-16T17:41:35.308Z,94.80
2018-04-16T17:44:03.601Z,95.20
2018-04-16T17:46:31.148Z,95.50
2018-04-16T17:48:58.751Z,95.20
2018-04-16T17:51:26.302Z,95.90
2018-04-16T17:53:53.886Z,96.20
2018-04-16T17:56:21.463Z,96.20
2018-04-16T17:58:50.663Z,96.70
2018-04-16T18:01:18.358Z,96.70
2018-04-16T18:03:45.883Z,96.40
2018-04-16T18:06:14.103Z,96.40
2018-04-16T18:08:42.655Z,96.50
2018-04-16T18:11:10.191Z,96.40
2018-04-16T18:13:37.729Z,96.00
2018-04-16T18:16:05.773Z,96.40
2018-04-16T18:18:33.332Z,96.50
2018-04-16T18:21:00.985Z,96.40
2018-04-16T18:23:28.558Z,96.60
2018-04-16T18:25:56.306Z,96.40
2018-04-16T18:28:23.885Z,96.10
2018-04-16T18:30:51.456Z,96.20
2018-04-16T18:33:19.910Z,96.10
2018-04-16T18:35:47.477Z,96.10
2018-04-16T18:38:15.067Z,96.00
2018-04-16T18:40:42.932Z,95.70
2018-04-16T18:43:10.463Z,96.00
2018-04-16T18:45:38.162Z,95.90
2018-04-16T18:48:05.747Z,96.10
2018-04-16T18:50:33.655Z,95.90
2018-04-16T18:53:01.236Z,96.00
2018-04-16T18:55:28.781Z,95.80
2018-04-16T18:57:56.463Z,95.40
2018-04-16T19:00:24.084Z,95.80
2018-04-16T19:02:51.612Z,95.30
2018-04-16T19:05:20.245Z,95.40
2018-04-16T19:07:47.891Z,95.60
2018-04-16T19:10:15.858Z,95.60
2018-04-16T19:12:43.365Z,94.70
2018-04-16T19:15:11.097Z,94.80
2018-04-16T19:17:44.184Z,95.00
2018-04-16T19:20:11.730Z,95.10
2018-04-16T19:22:39.621Z,95.30
2018-04-16T19:25:07.204Z,95.40
2018-04-16T19:27:40.481Z,95.20
2018-04-16T19:30:08.167Z,95.50
2018-04-16T19:32:41.420Z,95.80
2018-04-16T19:35:09.058Z,95.70
2018-04-16T19:37:37.339Z,95.20
2018-04-16T19:40:05.624Z,95.10
2018-04-16T19:42:39.691Z,95.00
2018-04-16T19:45:07.520Z,94.90
2018-04-16T19:47:35.099Z,94.90
2018-04-16T19:50:07.426Z,95.00
2018-04-16T19:52:35.348Z,94.90
2018-04-16T19:55:02.909Z,94.70
2018-04-16T19:57:36.090Z,94.80
2018-04-16T20:00:03.679Z,94.70
2018-04-16T20:02:36.830Z,94.70
2018-04-16T20:05:04.373Z,94.40
2018-04-16T20:07:31.991Z,94.40
2018-04-16T20:09:59.533Z,94.20
2018-04-16T20:12:27.093Z,94.00
2018-04-16T20:14:54.767Z,94.00
2018-04-16T20:17:22.316Z,94.10
2018-04-16T20:19:50.155Z,94.10
2018-04-16T20:22:17.650Z,94.00
2018-04-16T20:24:45.412Z,94.00
2018-04-16T20:27:13.014Z,94.00
2018-04-16T20:29:41.302Z,94.10
2018-04-16T20:32:08.839Z,94.10
2018-04-16T20:34:36.399Z,94.00
2018-04-16T20:37:04.131Z,93.90
2018-04-16T20:39:32.595Z,93.70
2018-04-16T20:42:00.167Z,93.70
2018-04-16T20:44:27.859Z,93.70
2018-04-16T20:46:55.359Z,93.80
2018-04-16T20:49:22.943Z,93.70
2018-04-16T20:51:50.486Z,93.70
2018-04-16T20:54:18.471Z,93.80
2018-04-16T20:56:46.145Z,94.00
2018-04-16T20:59:13.732Z,93.90
2018-04-16T21:01:42.138Z,94.10
2018-04-16T21:04:09.695Z,94.20
2018-04-16T21:06:38.007Z,94.10
2018-04-16T21:09:06.425Z,94.20
2018-04-16T21:11:34.426Z,94.20
2018-04-16T21:14:01.998Z,94.20
2018-04-16T21:16:29.798Z,94.20
2018-04-16T21:18:57.447Z,94.30
2018-04-16T21:21:24.986Z,94.30
2018-04-16T21:23:52.583Z,94.30
2018-04-16T21:26:20.157Z,94.60
2018-04-16T21:28:48.924Z,94.30
2018-04-16T21:31:16.441Z,94.40
2018-04-16T21:33:44.036Z,94.40
2018-04-16T21:36:11.544Z,94.40
2018-04-16T21:38:39.874Z,94.70
2018-04-16T21:41:07.730Z,94.50
2018-04-16T21:43:35.404Z,94.50
2018-04-16T21:46:02.913Z,94.70
2018-04-16T21:48:30.526Z,94.90
2018-04-16T21:50:58.254Z,95.10
2018-04-16T21:53:26.539Z,95.50
2018-04-16T21:55:54.065Z,95.50
2018-04-16T21:58:22.355Z,95.60
2018-04-16T22:00:50.016Z,95.60
2018-04-16T22:03:18.515Z,95.80
2018-04-16T22:05:46.631Z,96.10
2018-04-16T22:08:14.243Z,95.90
2018-04-16T22:10:42.193Z,96.00
2018-04-16T22:13:10.483Z,96.00
2018-04-16T22:15:38.423Z,96.00
2018-04-16T22:18:05.929Z,96.00
2018-04-16T22:20:33.536Z,95.90
2018-04-16T22:23:01.089Z,96.00
2018-04-16T22:25:29.188Z,95.90
2018-04-16T22:27:57.540Z,95.80
2018-04-16T22:30:25.066Z,96.10
2018-04-16T22:32:52.640Z,96.20
2018-04-16T22:35:20.156Z,96.00
2018-04-16T22:37:47.712Z,96.00
2018-04-16T22:40:15.224Z,96.00
2018-04-16T22:42:43.247Z,95.80
2018-04-16T22:45:13.090Z,96.00
2018-04-16T22:47:40.705Z,96.00
2018-04-16T22:50:08.213Z,96.10
2018-04-16T22:52:35.871Z,96.10
2018-04-16T22:55:03.433Z,96.30
2018-04-16T22:57:30.923Z,96.40
2018-04-16T22:59:58.760Z,96.40
2018-04-16T23:02:26.267Z,96.20
2018-04-16T23:04:53.805Z,96.20
2018-04-16T23:07:21.299Z,96.30
2018-04-16T23:09:48.968Z,96.10
2018-04-16T23:12:16.631Z,95.90
2018-04-16T23:14:45.226Z,95.80
2018-04-16T23:17:12.731Z,95.80
2018-04-16T23:19:40.291Z,95.60
2018-04-16T23:22:07.843Z,95.70
2018-04-16T23:24:35.592Z,95.60
2018-04-16T23:27:03.904Z,95.70
2018-04-16T23:29:31.409Z,95.70
2018-04-16T23:31:59.395Z,95.50
2018-04-16T23:34:26.968Z,95.40
2018-04-16T23:36:54.696Z,95.30
2018-04-16T23:39:23.211Z,94.80
2018-04-16T23:41:50.710Z,94.80
2018-04-16T23:44:19.754Z,94.90
2018-04-16T23:46:47.829Z,94.90
2018-04-16T23:49:15.327Z,95.00
2018-04-16T23:51:42.918Z,95.00
2018-04-16T23:54:10.435Z,94.90
2018-04-16T23:56:37.969Z,94.70
2018-04-16T23:59:05.489Z,94.40
